sensor_id;sensor_type;location;lat;lon;timestamp;P1;durP1;ratioP1;P2;durP2;ratioP2
58685;SDS011;44465;53.206;-6.106;2022-10-18T00:01:58;17.65;;;8.75;;
58685;SDS011;44465;53.206;-6.106;2022-10-18T00:04:25;16.55;;;7.93;;
58685;SDS011;44465;53.206;-6.106;2022-10-18T00:06:51;16.00;;;8.25;;
58685;SDS011;44465;53.206;-6.106;2022-10-18T00:09:16;15.50;;;7.70;;
58685;SDS011;44465;53.206;-6.106;2022-10-18T00:11:42;15.02;;;8.18;;
58685;SDS011;44465;53.206;-6.106;2022-10-18T00:14:07;13.05;;;7.85;;
58685;SDS011;44465;53.206;-6.106;2022-10-18T00:16:33;9.68;;;6.72;;
58685;SDS011;44465;53.206;-6.106;2022-10-18T00:18:58;10.48;;;6.75;;
58685;SDS011;44465;53.206;-6.106;2022-10-18T00:21:24;12.68;;;7.35;;
58685;SDS011;44465;53.206;-6.106;2022-10-18T00:23:51;13.10;;;6.78;;
58685;SDS011;44465;53.206;-6.106;2022-10-18T00:26:21;10.73;;;6.57;;
58685;SDS011;44465;53.206;-6.106;2022-10-18T00:28:53;9.95;;;6.90;;
58685;SDS011;44465;53.206;-6.106;2022-10-18T00:31:24;9.80;;;6.30;;
58685;SDS011;44465;53.206;-6.106;2022-10-18T00:33:55;11.48;;;6.85;;
58685;SDS011;44465;53.206;-6.106;2022-10-18T00:36:22;8.68;;;5.97;;
58685;SDS011;44465;53.206;-6.106;2022-10-18T00:38:48;13.85;;;6.53;;
58685;SDS011;44465;53.206;-6.106;2022-10-18T00:41:16;11.20;;;6.03;;
58685;SDS011;44465;53.206;-6.106;2022-10-18T00:46:50;9.15;;;6.10;;
58685;SDS011;44465;53.206;-6.106;2022-10-18T00:49:20;7.85;;;5.07;;
58685;SDS011;44465;53.206;-6.106;2022-10-18T00:51:52;9.63;;;5.60;;
58685;SDS011;44465;53.206;-6.106;2022-10-18T00:54:22;8.63;;;5.45;;
58685;SDS011;44465;53.206;-6.106;2022-10-18T00:56:49;8.88;;;5.20;;
58685;SDS011;44465;53.206;-6.106;2022-10-18T00:59:15;8.65;;;4.80;;
58685;SDS011;44465;53.206;-6.106;2022-10-18T01:01:42;7.18;;;5.15;;
58685;SDS011;44465;53.206;-6.106;2022-10-18T01:04:09;7.15;;;4.70;;
58685;SDS011;44465;53.206;-6.106;2022-10-18T01:33:24;7.55;;;4.35;;
58685;SDS011;44465;53.206;-6.106;2022-10-18T01:36:15;5.88;;;3.40;;
58685;SDS011;44465;53.206;-6.106;2022-10-18T01:38:46;5.47;;;3.40;;
58685;SDS011;44465;53.206;-6.106;2022-10-18T01:41:15;7.38;;;3.60;;
58685;SDS011;44465;53.206;-6.106;2022-10-18T01:43:44;4.95;;;3.50;;
58685;SDS011;44465;53.206;-6.106;2022-10-18T01:46:12;4.35;;;3.03;;
58685;SDS011;44465;53.206;-6.106;2022-10-18T01:48:42;3.50;;;2.95;;
58685;SDS011;44465;53.206;-6.106;2022-10-18T01:51:08;7.63;;;3.55;;
58685;SDS011;44465;53.206;-6.106;2022-10-18T01:53:34;5.95;;;3.40;;
58685;SDS011;44465;53.206;-6.106;2022-10-18T01:58:40;3.97;;;2.92;;
58685;SDS011;44465;53.206;-6.106;2022-10-18T02:07:02;4.30;;;2.75;;
58685;SDS011;44465;53.206;-6.106;2022-10-18T02:09:40;4.15;;;2.90;;
58685;SDS011;44465;53.206;-6.106;2022-10-18T02:12:14;4.45;;;2.63;;
58685;SDS011;44465;53.206;-6.106;2022-10-18T02:14:41;5.22;;;2.60;;
58685;SDS011;44465;53.206;-6.106;2022-10-18T02:19:40;3.42;;;2.42;;
58685;SDS011;44465;53.206;-6.106;2022-10-18T02:22:10;3.22;;;2.63;;
58685;SDS011;44465;53.206;-6.106;2022-10-18T02:24:38;4.78;;;2.83;;
58685;SDS011;44465;53.206;-6.106;2022-10-18T02:27:08;3.35;;;2.63;;
58685;SDS011;44465;53.206;-6.106;2022-10-18T02:29:36;4.75;;;3.05;;
58685;SDS011;44465;53.206;-6.106;2022-10-18T02:32:05;2.80;;;2.50;;
58685;SDS011;44465;53.206;-6.106;2022-10-18T02:34:36;2.65;;;1.98;;
58685;SDS011;44465;53.206;-6.106;2022-10-18T02:37:05;3.40;;;2.28;;
58685;SDS011;44465;53.206;-6.106;2022-10-18T02:39:34;3.38;;;2.20;;
58685;SDS011;44465;53.206;-6.106;2022-10-18T02:42:02;5.18;;;2.25;;
58685;SDS011;44465;53.206;-6.106;2022-10-18T02:44:34;4.63;;;2.13;;
58685;SDS011;44465;53.206;-6.106;2022-10-18T02:47:00;4.60;;;2.20;;
58685;SDS011;44465;53.206;-6.106;2022-10-18T02:49:26;5.70;;;2.45;;
58685;SDS011;44465;53.206;-6.106;2022-10-18T02:51:52;2.75;;;2.38;;
58685;SDS011;44465;53.206;-6.106;2022-10-18T02:54:17;3.33;;;2.10;;
58685;SDS011;44465;53.206;-6.106;2022-10-18T02:56:42;2.75;;;2.10;;
58685;SDS011;44465;53.206;-6.106;2022-10-18T02:59:08;1.80;;;1.70;;
58685;SDS011;44465;53.206;-6.106;2022-10-18T03:01:34;4.03;;;2.20;;
58685;SDS011;44465;53.206;-6.106;2022-10-18T03:04:00;2.80;;;2.50;;
58685;SDS011;44465;53.206;-6.106;2022-10-18T03:06:29;3.45;;;1.90;;
58685;SDS011;44465;53.206;-6.106;2022-10-18T03:08:55;2.40;;;2.00;;
58685;SDS011;44465;53.206;-6.106;2022-10-18T03:11:20;2.67;;;1.90;;
58685;SDS011;44465;53.206;-6.106;2022-10-18T03:13:46;4.07;;;2.22;;
58685;SDS011;44465;53.206;-6.106;2022-10-18T03:16:14;2.47;;;1.60;;
58685;SDS011;44465;53.206;-6.106;2022-10-18T03:18:40;2.83;;;1.70;;
58685;SDS011;44465;53.206;-6.106;2022-10-18T03:21:05;2.38;;;1.70;;
58685;SDS011;44465;53.206;-6.106;2022-10-18T03:23:31;2.05;;;1.75;;
58685;SDS011;44465;53.206;-6.106;2022-10-18T03:25:57;2.30;;;1.73;;
58685;SDS011;44465;53.206;-6.106;2022-10-18T03:28:22;2.80;;;1.70;;
58685;SDS011;44465;53.206;-6.106;2022-10-18T03:30:48;2.78;;;1.77;;
58685;SDS011;44465;53.206;-6.106;2022-10-18T03:33:14;1.77;;;1.55;;
58685;SDS011;44465;53.206;-6.106;2022-10-18T03:35:40;2.42;;;1.60;;
58685;SDS011;44465;53.206;-6.106;2022-10-18T03:38:05;2.03;;;1.50;;
58685;SDS011;44465;53.206;-6.106;2022-10-18T03:40:31;1.63;;;1.40;;
58685;SDS011;44465;53.206;-6.106;2022-10-18T03:42:56;2.67;;;1.58;;
58685;SDS011;44465;53.206;-6.106;2022-10-18T03:45:22;2.92;;;1.70;;
58685;SDS011;44465;53.206;-6.106;2022-10-18T03:47:47;2.80;;;1.58;;
58685;SDS011;44465;53.206;-6.106;2022-10-18T03:50:13;1.58;;;1.48;;
58685;SDS011;44465;53.206;-6.106;2022-10-18T03:52:38;1.92;;;1.73;;
58685;SDS011;44465;53.206;-6.106;2022-10-18T03:55:04;3.25;;;1.52;;
58685;SDS011;44465;53.206;-6.106;2022-10-18T03:57:30;1.95;;;1.75;;
58685;SDS011;44465;53.206;-6.106;2022-10-18T03:59:55;1.58;;;1.38;;
58685;SDS011;44465;53.206;-6.106;2022-10-18T04:02:21;3.45;;;1.40;;
58685;SDS011;44465;53.206;-6.106;2022-10-18T04:04:46;1.77;;;1.40;;
58685;SDS011;44465;53.206;-6.106;2022-10-18T04:07:12;1.83;;;1.70;;
58685;SDS011;44465;53.206;-6.106;2022-10-18T04:09:37;1.77;;;1.40;;
58685;SDS011;44465;53.206;-6.106;2022-10-18T04:12:03;1.13;;;1.00;;
58685;SDS011;44465;53.206;-6.106;2022-10-18T04:14:29;2.15;;;1.48;;
58685;SDS011;44465;53.206;-6.106;2022-10-18T04:16:54;1.50;;;1.20;;
58685;SDS011;44465;53.206;-6.106;2022-10-18T04:19:20;1.33;;;1.15;;
58685;SDS011;44465;53.206;-6.106;2022-10-18T04:21:45;1.77;;;1.00;;
58685;SDS011;44465;53.206;-6.106;2022-10-18T04:24:11;2.70;;;1.38;;
58685;SDS011;44465;53.206;-6.106;2022-10-18T04:26:36;1.58;;;1.30;;
58685;SDS011;44465;53.206;-6.106;2022-10-18T04:29:02;3.53;;;1.30;;
58685;SDS011;44465;53.206;-6.106;2022-10-18T04:31:28;1.67;;;1.08;;
58685;SDS011;44465;53.206;-6.106;2022-10-18T04:33:53;1.70;;;1.25;;
58685;SDS011;44465;53.206;-6.106;2022-10-18T04:36:19;1.38;;;1.27;;
58685;SDS011;44465;53.206;-6.106;2022-10-18T04:38:44;1.80;;;1.45;;
58685;SDS011;44465;53.206;-6.106;2022-10-18T04:41:10;1.35;;;1.02;;
58685;SDS011;44465;53.206;-6.106;2022-10-18T04:43:35;1.15;;;0.90;;
58685;SDS011;44465;53.206;-6.106;2022-10-18T04:46:01;1.75;;;1.10;;
58685;SDS011;44465;53.206;-6.106;2022-10-18T04:48:26;1.20;;;1.10;;
58685;SDS011;44465;53.206;-6.106;2022-10-18T04:50:52;2.05;;;1.27;;
58685;SDS011;44465;53.206;-6.106;2022-10-18T04:53:17;1.38;;;1.00;;
58685;SDS011;44465;53.206;-6.106;2022-10-18T04:55:43;2.00;;;1.10;;
58685;SDS011;44465;53.206;-6.106;2022-10-18T04:58:10;1.80;;;1.13;;
58685;SDS011;44465;53.206;-6.106;2022-10-18T05:00:37;1.05;;;0.98;;
58685;SDS011;44465;53.206;-6.106;2022-10-18T05:03:02;2.72;;;1.35;;
58685;SDS011;44465;53.206;-6.106;2022-10-18T05:05:28;2.03;;;1.00;;
58685;SDS011;44465;53.206;-6.106;2022-10-18T05:07:53;1.10;;;1.00;;
58685;SDS011;44465;53.206;-6.106;2022-10-18T05:10:19;1.85;;;0.90;;
58685;SDS011;44465;53.206;-6.106;2022-10-18T05:12:44;2.90;;;0.90;;
58685;SDS011;44465;53.206;-6.106;2022-10-18T05:15:10;0.95;;;0.85;;
58685;SDS011;44465;53.206;-6.106;2022-10-18T05:17:35;2.78;;;1.10;;
58685;SDS011;44465;53.206;-6.106;2022-10-18T05:20:01;0.98;;;0.90;;
58685;SDS011;44465;53.206;-6.106;2022-10-18T05:22:27;1.50;;;1.00;;
58685;SDS011;44465;53.206;-6.106;2022-10-18T05:24:52;0.73;;;0.73;;
58685;SDS011;44465;53.206;-6.106;2022-10-18T05:27:18;1.10;;;0.60;;
58685;SDS011;44465;53.206;-6.106;2022-10-18T05:29:43;0.73;;;0.70;;
58685;SDS011;44465;53.206;-6.106;2022-10-18T05:32:09;0.95;;;0.90;;
58685;SDS011;44465;53.206;-6.106;2022-10-18T05:34:34;1.48;;;0.95;;
58685;SDS011;44465;53.206;-6.106;2022-10-18T05:37:00;1.55;;;0.85;;
58685;SDS011;44465;53.206;-6.106;2022-10-18T05:39:25;0.98;;;0.70;;
58685;SDS011;44465;53.206;-6.106;2022-10-18T05:41:51;1.55;;;0.80;;
58685;SDS011;44465;53.206;-6.106;2022-10-18T05:44:16;0.82;;;0.60;;
58685;SDS011;44465;53.206;-6.106;2022-10-18T05:46:42;0.80;;;0.75;;
58685;SDS011;44465;53.206;-6.106;2022-10-18T05:49:09;0.60;;;0.60;;
58685;SDS011;44465;53.206;-6.106;2022-10-18T05:51:36;1.00;;;0.88;;
58685;SDS011;44465;53.206;-6.106;2022-10-18T05:54:02;1.08;;;0.95;;
58685;SDS011;44465;53.206;-6.106;2022-10-18T05:56:27;1.10;;;0.73;;
58685;SDS011;44465;53.206;-6.106;2022-10-18T05:58:53;0.80;;;0.80;;
58685;SDS011;44465;53.206;-6.106;2022-10-18T06:01:19;0.80;;;0.63;;
58685;SDS011;44465;53.206;-6.106;2022-10-18T06:03:44;1.08;;;0.98;;
58685;SDS011;44465;53.206;-6.106;2022-10-18T06:06:11;0.90;;;0.70;;
58685;SDS011;44465;53.206;-6.106;2022-10-18T06:08:38;0.68;;;0.50;;
58685;SDS011;44465;53.206;-6.106;2022-10-18T06:11:06;1.05;;;0.77;;
58685;SDS011;44465;53.206;-6.106;2022-10-18T06:13:33;0.40;;;0.40;;
58685;SDS011;44465;53.206;-6.106;2022-10-18T06:15:59;1.35;;;0.68;;
58685;SDS011;44465;53.206;-6.106;2022-10-18T06:18:24;0.88;;;0.70;;
58685;SDS011;44465;53.206;-6.106;2022-10-18T06:20:59;0.73;;;0.57;;
58685;SDS011;44465;53.206;-6.106;2022-10-18T06:23:25;1.00;;;0.65;;
58685;SDS011;44465;53.206;-6.106;2022-10-18T06:25:52;0.63;;;0.50;;
58685;SDS011;44465;53.206;-6.106;2022-10-18T06:28:17;0.80;;;0.45;;
58685;SDS011;44465;53.206;-6.106;2022-10-18T06:30:43;0.73;;;0.70;;
58685;SDS011;44465;53.206;-6.106;2022-10-18T06:33:09;0.50;;;0.50;;
58685;SDS011;44465;53.206;-6.106;2022-10-18T06:35:36;1.48;;;0.80;;
58685;SDS011;44465;53.206;-6.106;2022-10-18T06:38:07;2.75;;;0.63;;
58685;SDS011;44465;53.206;-6.106;2022-10-18T06:40:32;1.10;;;0.80;;
58685;SDS011;44465;53.206;-6.106;2022-10-18T06:43:05;4.32;;;0.70;;
58685;SDS011;44465;53.206;-6.106;2022-10-18T06:45:31;4.75;;;1.30;;
58685;SDS011;44465;53.206;-6.106;2022-10-18T06:47:57;1.55;;;0.90;;
58685;SDS011;44465;53.206;-6.106;2022-10-18T06:50:23;2.08;;;0.85;;
58685;SDS011;44465;53.206;-6.106;2022-10-18T06:52:50;5.72;;;1.00;;
58685;SDS011;44465;53.206;-6.106;2022-10-18T06:57:42;6.10;;;1.33;;
58685;SDS011;44465;53.206;-6.106;2022-10-18T07:00:07;6.93;;;1.23;;
58685;SDS011;44465;53.206;-6.106;2022-10-18T07:02:33;5.38;;;1.00;;
58685;SDS011;44465;53.206;-6.106;2022-10-18T07:04:59;5.35;;;0.90;;
58685;SDS011;44465;53.206;-6.106;2022-10-18T07:07:24;3.53;;;1.02;;
58685;SDS011;44465;53.206;-6.106;2022-10-18T07:09:50;6.93;;;1.05;;
58685;SDS011;44465;53.206;-6.106;2022-10-18T07:12:15;3.90;;;1.00;;
58685;SDS011;44465;53.206;-6.106;2022-10-18T07:14:42;5.85;;;1.25;;
58685;SDS011;44465;53.206;-6.106;2022-10-18T07:17:07;3.72;;;0.80;;
58685;SDS011;44465;53.206;-6.106;2022-10-18T07:19:33;2.05;;;0.50;;
58685;SDS011;44465;53.206;-6.106;2022-10-18T07:21:58;4.00;;;1.10;;
58685;SDS011;44465;53.206;-6.106;2022-10-18T07:24:24;3.10;;;0.98;;
58685;SDS011;44465;53.206;-6.106;2022-10-18T07:26:49;7.03;;;1.33;;
58685;SDS011;44465;53.206;-6.106;2022-10-18T07:29:15;5.15;;;0.82;;
58685;SDS011;44465;53.206;-6.106;2022-10-18T07:31:40;6.60;;;0.88;;
58685;SDS011;44465;53.206;-6.106;2022-10-18T07:34:06;2.75;;;0.70;;
58685;SDS011;44465;53.206;-6.106;2022-10-18T07:36:34;3.17;;;0.95;;
58685;SDS011;44465;53.206;-6.106;2022-10-18T07:39:00;4.28;;;1.15;;
58685;SDS011;44465;53.206;-6.106;2022-10-18T07:41:25;5.88;;;0.82;;
58685;SDS011;44465;53.206;-6.106;2022-10-18T07:43:51;2.75;;;0.90;;
58685;SDS011;44465;53.206;-6.106;2022-10-18T07:46:18;3.53;;;1.52;;
58685;SDS011;44465;53.206;-6.106;2022-10-18T07:48:45;1.30;;;0.90;;
58685;SDS011;44465;53.206;-6.106;2022-10-18T07:51:11;2.08;;;1.13;;
58685;SDS011;44465;53.206;-6.106;2022-10-18T07:53:37;2.67;;;0.63;;
58685;SDS011;44465;53.206;-6.106;2022-10-18T07:56:04;2.63;;;0.80;;
58685;SDS011;44465;53.206;-6.106;2022-10-18T07:58:39;1.88;;;0.77;;
58685;SDS011;44465;53.206;-6.106;2022-10-18T08:01:06;2.00;;;0.85;;
58685;SDS011;44465;53.206;-6.106;2022-10-18T08:03:33;2.40;;;1.07;;
58685;SDS011;44465;53.206;-6.106;2022-10-18T08:05:59;2.03;;;0.80;;
58685;SDS011;44465;53.206;-6.106;2022-10-18T08:08:26;1.83;;;0.85;;
58685;SDS011;44465;53.206;-6.106;2022-10-18T08:10:52;1.70;;;0.60;;
58685;SDS011;44465;53.206;-6.106;2022-10-18T08:13:17;2.28;;;0.90;;
58685;SDS011;44465;53.206;-6.106;2022-10-18T08:15:43;1.65;;;0.85;;
58685;SDS011;44465;53.206;-6.106;2022-10-18T08:18:10;3.17;;;0.90;;
58685;SDS011;44465;53.206;-6.106;2022-10-18T08:20:35;3.65;;;1.00;;
58685;SDS011;44465;53.206;-6.106;2022-10-18T08:23:02;1.92;;;0.80;;
58685;SDS011;44465;53.206;-6.106;2022-10-18T08:25:28;2.28;;;0.98;;
58685;SDS011;44465;53.206;-6.106;2022-10-18T08:27:54;1.80;;;0.82;;
58685;SDS011;44465;53.206;-6.106;2022-10-18T08:30:20;4.63;;;1.33;;
58685;SDS011;44465;53.206;-6.106;2022-10-18T08:32:47;1.50;;;1.02;;
58685;SDS011;44465;53.206;-6.106;2022-10-18T08:35:13;1.30;;;1.00;;
58685;SDS011;44465;53.206;-6.106;2022-10-18T08:37:39;0.88;;;0.60;;
58685;SDS011;44465;53.206;-6.106;2022-10-18T08:40:04;1.65;;;0.85;;
58685;SDS011;44465;53.206;-6.106;2022-10-18T08:45:14;0.85;;;0.70;;
58685;SDS011;44465;53.206;-6.106;2022-10-18T08:47:43;1.77;;;0.60;;
58685;SDS011;44465;53.206;-6.106;2022-10-18T08:58:11;2.70;;;0.80;;
58685;SDS011;44465;53.206;-6.106;2022-10-18T09:00:38;0.98;;;0.65;;
58685;SDS011;44465;53.206;-6.106;2022-10-18T09:10:43;6.47;;;1.35;;
58685;SDS011;44465;53.206;-6.106;2022-10-18T09:16:00;13.73;;;1.77;;
58685;SDS011;44465;53.206;-6.106;2022-10-18T09:26:47;13.30;;;1.20;;
58685;SDS011;44465;53.206;-6.106;2022-10-18T09:32:13;4.57;;;1.13;;
58685;SDS011;44465;53.206;-6.106;2022-10-18T09:35:02;3.95;;;1.20;;
58685;SDS011;44465;53.206;-6.106;2022-10-18T09:38:00;3.80;;;1.35;;
58685;SDS011;44465;53.206;-6.106;2022-10-18T09:40:29;6.13;;;1.30;;
58685;SDS011;44465;53.206;-6.106;2022-10-18T09:43:18;2.60;;;1.48;;
58685;SDS011;44465;53.206;-6.106;2022-10-18T09:45:47;3.08;;;1.35;;
58685;SDS011;44465;53.206;-6.106;2022-10-18T09:48:19;3.83;;;1.25;;
58685;SDS011;44465;53.206;-6.106;2022-10-18T09:50:53;2.72;;;1.30;;
58685;SDS011;44465;53.206;-6.106;2022-10-18T09:53:26;5.20;;;1.10;;
58685;SDS011;44465;53.206;-6.106;2022-10-18T09:56:01;7.13;;;1.40;;
58685;SDS011;44465;53.206;-6.106;2022-10-18T09:58:35;4.07;;;1.27;;
58685;SDS011;44465;53.206;-6.106;2022-10-18T10:01:08;4.18;;;1.00;;
58685;SDS011;44465;53.206;-6.106;2022-10-18T10:03:35;3.25;;;1.27;;
58685;SDS011;44465;53.206;-6.106;2022-10-18T10:06:02;6.97;;;1.30;;
58685;SDS011;44465;53.206;-6.106;2022-10-18T10:11:55;3.20;;;0.90;;
58685;SDS011;44465;53.206;-6.106;2022-10-18T10:14:22;2.83;;;1.23;;
58685;SDS011;44465;53.206;-6.106;2022-10-18T10:16:52;3.50;;;1.00;;
58685;SDS011;44465;53.206;-6.106;2022-10-18T10:19:27;5.63;;;1.45;;
58685;SDS011;44465;53.206;-6.106;2022-10-18T10:21:56;4.68;;;1.30;;
58685;SDS011;44465;53.206;-6.106;2022-10-18T10:30:26;3.25;;;1.10;;
58685;SDS011;44465;53.206;-6.106;2022-10-18T10:32:56;2.40;;;0.90;;
58685;SDS011;44465;53.206;-6.106;2022-10-18T10:35:38;2.58;;;1.15;;
58685;SDS011;44465;53.206;-6.106;2022-10-18T10:38:05;1.75;;;0.93;;
58685;SDS011;44465;53.206;-6.106;2022-10-18T10:40:39;3.83;;;1.20;;
58685;SDS011;44465;53.206;-6.106;2022-10-18T10:43:33;7.68;;;1.40;;
58685;SDS011;44465;53.206;-6.106;2022-10-18T10:53:58;4.00;;;1.27;;
58685;SDS011;44465;53.206;-6.106;2022-10-18T10:56:29;3.33;;;1.60;;
58685;SDS011;44465;53.206;-6.106;2022-10-18T10:59:00;3.92;;;1.08;;
58685;SDS011;44465;53.206;-6.106;2022-10-18T11:01:46;3.97;;;1.45;;
58685;SDS011;44465;53.206;-6.106;2022-10-18T11:04:27;10.52;;;1.75;;
58685;SDS011;44465;53.206;-6.106;2022-10-18T11:07:05;5.55;;;1.60;;
58685;SDS011;44465;53.206;-6.106;2022-10-18T11:20:20;12.40;;;1.52;;
58685;SDS011;44465;53.206;-6.106;2022-10-18T11:22:57;5.25;;;1.63;;
58685;SDS011;44465;53.206;-6.106;2022-10-18T11:25:33;8.50;;;1.30;;
58685;SDS011;44465;53.206;-6.106;2022-10-18T11:28:05;6.50;;;1.20;;
58685;SDS011;44465;53.206;-6.106;2022-10-18T11:36:53;3.97;;;0.93;;
58685;SDS011;44465;53.206;-6.106;2022-10-18T11:45:23;6.65;;;1.65;;
58685;SDS011;44465;53.206;-6.106;2022-10-18T11:48:07;3.55;;;1.10;;
58685;SDS011;44465;53.206;-6.106;2022-10-18T11:58:37;8.90;;;1.80;;
58685;SDS011;44465;53.206;-6.106;2022-10-18T12:06:52;3.13;;;1.00;;
58685;SDS011;44465;53.206;-6.106;2022-10-18T12:09:36;4.63;;;1.60;;
58685;SDS011;44465;53.206;-6.106;2022-10-18T12:14:39;3.22;;;1.20;;
58685;SDS011;44465;53.206;-6.106;2022-10-18T12:17:20;3.05;;;1.00;;
58685;SDS011;44465;53.206;-6.106;2022-10-18T12:19:47;5.07;;;1.83;;
58685;SDS011;44465;53.206;-6.106;2022-10-18T12:22:20;6.10;;;1.38;;
58685;SDS011;44465;53.206;-6.106;2022-10-18T12:24:49;6.05;;;1.17;;
58685;SDS011;44465;53.206;-6.106;2022-10-18T12:27:15;6.15;;;1.13;;
58685;SDS011;44465;53.206;-6.106;2022-10-18T12:32:28;4.07;;;1.00;;
58685;SDS011;44465;53.206;-6.106;2022-10-18T12:34:57;3.60;;;1.27;;
58685;SDS011;44465;53.206;-6.106;2022-10-18T12:42:57;4.60;;;1.35;;
58685;SDS011;44465;53.206;-6.106;2022-10-18T12:45:30;4.22;;;1.13;;
58685;SDS011;44465;53.206;-6.106;2022-10-18T12:48:00;7.05;;;1.50;;
58685;SDS011;44465;53.206;-6.106;2022-10-18T12:50:39;4.20;;;1.30;;
58685;SDS011;44465;53.206;-6.106;2022-10-18T12:53:15;3.40;;;1.30;;
58685;SDS011;44465;53.206;-6.106;2022-10-18T12:55:49;5.85;;;1.13;;
58685;SDS011;44465;53.206;-6.106;2022-10-18T13:27:13;6.97;;;1.52;;
58685;SDS011;44465;53.206;-6.106;2022-10-18T13:29:52;4.72;;;1.48;;
58685;SDS011;44465;53.206;-6.106;2022-10-18T13:46:18;6.85;;;1.27;;
58685;SDS011;44465;53.206;-6.106;2022-10-18T13:54:08;7.35;;;1.27;;
58685;SDS011;44465;53.206;-6.106;2022-10-18T14:08:47;3.13;;;1.15;;
58685;SDS011;44465;53.206;-6.106;2022-10-18T14:14:21;6.57;;;1.23;;
58685;SDS011;44465;53.206;-6.106;2022-10-18T14:16:55;4.43;;;1.30;;
58685;SDS011;44465;53.206;-6.106;2022-10-18T14:19:41;4.22;;;1.15;;
58685;SDS011;44465;53.206;-6.106;2022-10-18T14:22:23;5.80;;;1.20;;
58685;SDS011;44465;53.206;-6.106;2022-10-18T14:24:54;2.63;;;1.00;;
58685;SDS011;44465;53.206;-6.106;2022-10-18T14:27:21;7.00;;;1.25;;
58685;SDS011;44465;53.206;-6.106;2022-10-18T14:29:48;5.72;;;1.60;;
58685;SDS011;44465;53.206;-6.106;2022-10-18T14:32:30;7.15;;;1.17;;
58685;SDS011;44465;53.206;-6.106;2022-10-18T14:34:56;7.88;;;1.17;;
58685;SDS011;44465;53.206;-6.106;2022-10-18T14:37:30;4.93;;;0.73;;
58685;SDS011;44465;53.206;-6.106;2022-10-18T14:39:58;8.07;;;1.60;;
58685;SDS011;44465;53.206;-6.106;2022-10-18T14:42:24;3.63;;;1.02;;
58685;SDS011;44465;53.206;-6.106;2022-10-18T14:44:51;4.47;;;0.80;;
58685;SDS011;44465;53.206;-6.106;2022-10-18T14:47:22;6.60;;;1.30;;
58685;SDS011;44465;53.206;-6.106;2022-10-18T14:49:52;5.53;;;1.17;;
58685;SDS011;44465;53.206;-6.106;2022-10-18T14:55:51;5.15;;;1.15;;
58685;SDS011;44465;53.206;-6.106;2022-10-18T14:58:19;4.53;;;1.25;;
58685;SDS011;44465;53.206;-6.106;2022-10-18T15:00:51;7.20;;;1.10;;
58685;SDS011;44465;53.206;-6.106;2022-10-18T15:03:18;3.95;;;1.10;;
58685;SDS011;44465;53.206;-6.106;2022-10-18T15:05:54;3.17;;;1.02;;
58685;SDS011;44465;53.206;-6.106;2022-10-18T15:08:58;6.18;;;0.98;;
58685;SDS011;44465;53.206;-6.106;2022-10-18T15:11:21;3.00;;;1.00;;
58685;SDS011;44465;53.206;-6.106;2022-10-18T15:13:49;9.35;;;1.70;;
58685;SDS011;44465;53.206;-6.106;2022-10-18T15:16:24;110.65;;;50.10;;
58685;SDS011;44465;53.206;-6.106;2022-10-18T15:19:18;207.63;;;89.28;;
58685;SDS011;44465;53.206;-6.106;2022-10-18T15:24:30;205.93;;;95.95;;
58685;SDS011;44465;53.206;-6.106;2022-10-18T15:27:16;205.18;;;95.63;;
58685;SDS011;44465;53.206;-6.106;2022-10-18T15:29:48;185.70;;;85.90;;
58685;SDS011;44465;53.206;-6.106;2022-10-18T15:34:49;164.43;;;82.43;;
58685;SDS011;44465;53.206;-6.106;2022-10-18T15:37:16;173.00;;;77.72;;
58685;SDS011;44465;53.206;-6.106;2022-10-18T15:42:40;134.48;;;64.72;;
58685;SDS011;44465;53.206;-6.106;2022-10-18T16:00:43;98.68;;;48.88;;
58685;SDS011;44465;53.206;-6.106;2022-10-18T16:03:09;90.85;;;44.08;;
58685;SDS011;44465;53.206;-6.106;2022-10-18T16:05:35;97.32;;;45.33;;
58685;SDS011;44465;53.206;-6.106;2022-10-18T16:08:02;91.13;;;44.45;;
58685;SDS011;44465;53.206;-6.106;2022-10-18T16:10:28;99.55;;;44.53;;
58685;SDS011;44465;53.206;-6.106;2022-10-18T16:12:53;92.93;;;43.47;;
58685;SDS011;44465;53.206;-6.106;2022-10-18T16:15:19;81.90;;;39.28;;
58685;SDS011;44465;53.206;-6.106;2022-10-18T16:17:45;80.18;;;38.40;;
58685;SDS011;44465;53.206;-6.106;2022-10-18T16:20:16;79.77;;;37.73;;
58685;SDS011;44465;53.206;-6.106;2022-10-18T16:22:51;76.20;;;35.72;;
58685;SDS011;44465;53.206;-6.106;2022-10-18T16:25:17;67.28;;;33.28;;
58685;SDS011;44465;53.206;-6.106;2022-10-18T16:27:42;68.63;;;33.28;;
58685;SDS011;44465;53.206;-6.106;2022-10-18T16:30:12;66.97;;;32.10;;
58685;SDS011;44465;53.206;-6.106;2022-10-18T16:32:40;58.35;;;28.27;;
58685;SDS011;44465;53.206;-6.106;2022-10-18T16:35:06;59.20;;;28.38;;
58685;SDS011;44465;53.206;-6.106;2022-10-18T16:37:32;50.13;;;26.45;;
58685;SDS011;44465;53.206;-6.106;2022-10-18T16:39:57;56.05;;;28.20;;
58685;SDS011;44465;53.206;-6.106;2022-10-18T16:42:23;58.28;;;27.88;;
58685;SDS011;44465;53.206;-6.106;2022-10-18T16:44:48;49.88;;;26.00;;
58685;SDS011;44465;53.206;-6.106;2022-10-18T16:47:14;56.22;;;22.92;;
58685;SDS011;44465;53.206;-6.106;2022-10-18T16:49:40;58.30;;;25.35;;
58685;SDS011;44465;53.206;-6.106;2022-10-18T16:52:06;54.08;;;25.58;;
58685;SDS011;44465;53.206;-6.106;2022-10-18T16:54:31;61.05;;;24.10;;
58685;SDS011;44465;53.206;-6.106;2022-10-18T16:56:57;55.53;;;19.92;;
58685;SDS011;44465;53.206;-6.106;2022-10-18T16:59:26;46.70;;;19.55;;
58685;SDS011;44465;53.206;-6.106;2022-10-18T17:01:53;48.05;;;20.05;;
58685;SDS011;44465;53.206;-6.106;2022-10-18T17:04:19;31.17;;;10.38;;
58685;SDS011;44465;53.206;-6.106;2022-10-18T17:06:44;22.50;;;7.90;;
58685;SDS011;44465;53.206;-6.106;2022-10-18T17:09:11;19.00;;;6.78;;
58685;SDS011;44465;53.206;-6.106;2022-10-18T17:11:38;27.13;;;9.23;;
58685;SDS011;44465;53.206;-6.106;2022-10-18T17:14:04;29.85;;;12.07;;
58685;SDS011;44465;53.206;-6.106;2022-10-18T17:16:30;33.60;;;11.40;;
58685;SDS011;44465;53.206;-6.106;2022-10-18T17:18:58;31.13;;;11.75;;
58685;SDS011;44465;53.206;-6.106;2022-10-18T17:21:25;25.80;;;12.25;;
58685;SDS011;44465;53.206;-6.106;2022-10-18T17:23:51;28.48;;;11.90;;
58685;SDS011;44465;53.206;-6.106;2022-10-18T17:26:20;28.50;;;10.73;;
58685;SDS011;44465;53.206;-6.106;2022-10-18T17:28:54;28.30;;;11.30;;
58685;SDS011;44465;53.206;-6.106;2022-10-18T17:31:23;24.77;;;10.23;;
58685;SDS011;44465;53.206;-6.106;2022-10-18T17:33:48;23.85;;;9.95;;
58685;SDS011;44465;53.206;-6.106;2022-10-18T17:36:14;32.38;;;10.75;;
58685;SDS011;44465;53.206;-6.106;2022-10-18T17:38:40;20.80;;;9.80;;
58685;SDS011;44465;53.206;-6.106;2022-10-18T17:41:06;24.20;;;9.18;;
58685;SDS011;44465;53.206;-6.106;2022-10-18T17:43:38;29.02;;;10.73;;
58685;SDS011;44465;53.206;-6.106;2022-10-18T17:46:07;21.35;;;9.18;;
58685;SDS011;44465;53.206;-6.106;2022-10-18T17:48:35;22.42;;;8.15;;
58685;SDS011;44465;53.206;-6.106;2022-10-18T17:51:05;22.92;;;9.65;;
58685;SDS011;44465;53.206;-6.106;2022-10-18T17:53:34;23.27;;;9.35;;
58685;SDS011;44465;53.206;-6.106;2022-10-18T17:56:00;18.50;;;8.55;;
58685;SDS011;44465;53.206;-6.106;2022-10-18T17:58:27;21.15;;;8.55;;
58685;SDS011;44465;53.206;-6.106;2022-10-18T18:00:53;21.70;;;8.05;;
58685;SDS011;44465;53.206;-6.106;2022-10-18T18:03:19;22.75;;;8.38;;
58685;SDS011;44465;53.206;-6.106;2022-10-18T18:05:45;23.45;;;8.20;;
58685;SDS011;44465;53.206;-6.106;2022-10-18T18:08:14;18.02;;;7.40;;
58685;SDS011;44465;53.206;-6.106;2022-10-18T18:10:39;23.90;;;7.43;;
58685;SDS011;44465;53.206;-6.106;2022-10-18T18:13:05;20.00;;;7.00;;
58685;SDS011;44465;53.206;-6.106;2022-10-18T18:15:30;21.73;;;8.07;;
58685;SDS011;44465;53.206;-6.106;2022-10-18T18:17:56;18.27;;;7.55;;
58685;SDS011;44465;53.206;-6.106;2022-10-18T18:20:21;18.17;;;6.80;;
58685;SDS011;44465;53.206;-6.106;2022-10-18T18:22:49;20.38;;;6.63;;
58685;SDS011;44465;53.206;-6.106;2022-10-18T18:25:14;27.40;;;8.70;;
58685;SDS011;44465;53.206;-6.106;2022-10-18T18:27:41;17.27;;;6.73;;